Pagrindinis puslapis
METAR-TAF:

METAR-TAF

Oro uostai :

Brestas, Baltarusija

platuma: 52-06-30N, ilguma: 023-53-48E, Aukštis: 143 m

Dabartinis oras

Ataskaita buvo paskelbta 1 valandą ir 8 minutes, ne 04:00 UTC
Ramus vėjas
Temperatūra 6°C
Drėgmė 100%
Slėgis 1013 hPa
Matomumas: 2700 m
Apsiniaukę ne aukštis 3200 ft, Liūtiniai kamuoliniai debesys.
lietus, rūkana

METAR: UMBB 180400Z 00000MPS 2700 -SHRA BR OVC032CB 06/06 Q1013 NOSIG

Laikas: 08:08 (05:08 UTC)

Prognozė

Ataskaita buvo paskelbta 3 valandos ir 5 minutes, ne 02:03 UTC
Prognozė galioja nuo 18 metu 03 UTC su 18 metu 12 UTC
Vėjas 10 kt iš Vakarų/Pietvakarių
Matomumas: 4000 m
Su prošvaistėmis ne aukštis 1000 ft
rūkana
Laikinai
nuo 18 metu 03 UTC su 18 metu 11 UTC
Vėjas 10 kt iš Vakarų su gūsio iki 19 kt
Matomumas: 2100 m
Su prošvaistėmis ne aukštis 700 ft
Su prošvaistėmis ne aukštis 1500 ft, Liūtiniai kamuoliniai debesys.
lietus, rūkana

TAF: UMBB 180203Z 1803/1812 24005MPS 4000 BR BKN010 TEMPO 1803/1811 27005G10MPS 2100 -SHRA BR BKN007 BKN015CB

Orai ataskaitas ir orų prognozės (METAR, TAF).

turimą stotys yra geltonos ir raudonos taškus žemėlapyje.

Perkelti pele per norėdami pamatyti stoties vardą.

Tada spustelėkite, norėdami matyti oro stebėjimo ir prognozės.

Norėdami pakeisti žemėlapį: spustelėkite ant žalios mygtukų su juodo kryžiaus žemyn,; žalią mygtuką su brūkšneliu, jei norite nutolinti; arba žalių rodyklių gretimoms žemėlapius.


METAR-TAF: